.
WxDataArchive / Data Records for 2015-06-16
2015-06-15 June 2015 2015-06-17

Data Records for Tuesday, 16 June 2015

Time	Temp	Chill	HIndex	Humid	Dewpt	 Wind 	HiWind	WindDir	Rain 	Barom
-----	----	-----	------	-----	-----	------	------	-------	-----	-----
00:00	70.1	70.1	70.1	96	68.9	0	0	---	0.01	29.896 
00:05	69.9	69.9	69.9	96	68.7	0	0	---	0.02	29.896 
00:10	69.9	69.9	69.9	96	68.7	0	1	270	0.02	29.896 
00:15	69.9	69.9	69.9	96	68.7	0	1	270	0.00	29.890 
00:20	70.1	70.1	70.1	96	68.9	0	1	270	0.00	29.890 
00:25	70.1	70.1	70.1	96	68.9	0	2	270	0.01	29.890 
00:30	70.3	70.3	70.3	96	69.1	0	1	270	0.00	29.882 
00:35	70.3	70.3	70.3	96	69.1	0	2	270	0.00	29.882 
00:40	70.3	70.3	70.3	96	69.1	0	3	270	0.01	29.882 
00:45	70.1	70.1	70.1	96	68.9	0	1	270	0.01	29.864 
00:50	69.9	69.9	69.9	96	68.7	0	1	270	0.00	29.864 
00:55	69.9	69.9	69.9	96	68.7	0	1	270	0.00	29.864 
01:00	69.8	69.8	69.8	96	68.6	0	1	270	0.00	29.868 
01:05	69.8	69.8	69.8	96	68.6	0	2	270	0.00	29.868 
01:10	69.6	69.6	69.6	96	68.4	0	1	270	0.00	29.868 
01:15	69.4	69.4	69.4	96	68.2	0	3	270	0.00	29.881 
01:20	69.4	69.4	69.4	96	68.2	0	2	270	0.00	29.881 
01:25	69.3	69.3	69.3	96	68.1	1	3	270	0.00	29.881 
01:30	69.1	69.1	69.1	96	67.9	0	3	270	0.01	29.893 
01:35	69.1	69.1	69.1	96	67.9	0	2	270	0.01	29.893 
01:40	69.1	69.1	69.1	96	67.9	0	3	270	0.00	29.893 
01:45	68.9	68.9	68.9	96	67.7	1	4	270	0.00	29.897 
01:50	68.9	68.9	68.9	96	67.7	0	1	270	0.00	29.897 
01:55	68.9	68.9	68.9	96	67.7	0	2	270	0.00	29.897 
02:00	68.8	68.8	68.8	96	67.6	0	2	270	0.01	29.898 
02:05	68.8	68.8	68.8	96	67.6	0	2	270	0.00	29.898 
02:10	68.8	68.8	68.8	96	67.6	0	2	270	0.00	29.898 
02:15	68.8	68.8	68.8	96	67.6	0	1	270	0.00	29.894 
02:20	68.8	68.8	68.8	96	67.6	0	1	270	0.00	29.894 
02:25	68.6	68.6	68.6	96	67.4	0	0	---	0.00	29.894 
02:30	68.6	68.6	68.6	96	67.4	0	0	---	0.00	29.894 
02:35	68.6	68.6	68.6	96	67.4	0	0	---	0.00	29.894 
02:40	68.6	68.6	68.6	96	67.4	0	0	---	0.00	29.894 
02:45	68.6	68.6	68.6	96	67.4	0	0	---	0.00	29.894 
02:50	68.6	68.6	68.6	96	67.4	0	0	---	0.00	29.894 
02:55	68.4	68.4	68.4	96	67.2	0	0	---	0.00	29.894 
03:00	68.4	68.4	68.4	96	67.2	0	1	270	0.00	29.895 
03:05	68.4	68.4	68.4	96	67.2	0	1	270	0.00	29.895 
03:10	68.4	68.4	68.4	96	67.2	0	1	270	0.00	29.895 
03:15	68.3	68.3	68.3	97	67.4	0	1	270	0.00	29.904 
03:20	68.3	68.3	68.3	97	67.4	0	1	270	0.00	29.904 
03:25	68.3	68.3	68.3	97	67.4	0	0	---	0.00	29.904 
03:30	68.3	68.3	68.3	97	67.4	0	1	270	0.00	29.903 
03:35	68.1	68.1	68.1	97	67.2	0	1	270	0.00	29.903 
03:40	68.1	68.1	68.1	97	67.2	0	1	270	0.00	29.903 
03:45	68.1	68.1	68.1	97	67.2	0	1	270	0.00	29.908 
03:50	68.1	68.1	68.1	97	67.2	0	1	270	0.00	29.908 
03:55	67.9	67.9	67.9	97	67.0	0	0	---	0.00	29.908 
04:00	67.9	67.9	67.9	97	67.0	0	1	270	0.00	29.907 
04:05	67.9	67.9	67.9	97	67.0	0	2	270	0.00	29.907 
04:10	67.9	67.9	67.9	97	67.0	0	3	270	0.00	29.907 
04:15	68.1	68.1	68.1	97	67.2	0	2	270	0.00	29.904 
04:20	67.9	67.9	67.9	97	67.0	0	1	270	0.00	29.904 
04:25	67.9	67.9	67.9	97	67.0	0	0	---	0.00	29.904 
04:30	67.9	67.9	67.9	97	67.0	0	1	270	0.00	29.899 
04:35	67.9	67.9	67.9	97	67.0	0	2	270	0.00	29.899 
04:40	67.9	67.9	67.9	97	67.0	0	1	270	0.00	29.899 
04:45	67.9	67.9	67.9	97	67.0	0	1	270	0.00	29.903 
04:50	67.9	67.9	67.9	97	67.0	0	0	---	0.00	29.903 
04:55	67.9	67.9	67.9	97	67.0	0	1	270	0.00	29.903 
05:00	68.1	68.1	68.1	97	67.2	0	0	---	0.00	29.908 
05:05	68.1	68.1	68.1	97	67.2	0	0	---	0.00	29.908 
05:10	68.1	68.1	68.1	97	67.2	0	1	270	0.00	29.908 
05:15	68.1	68.1	68.1	97	67.2	0	1	270	0.00	29.921 
05:20	68.3	68.3	68.3	97	67.4	0	1	270	0.00	29.921 
05:25	68.3	68.3	68.3	97	67.4	0	0	---	0.00	29.921 
05:30	68.3	68.3	68.3	97	67.4	0	1	270	0.00	29.924 
05:35	68.3	68.3	68.3	97	67.4	0	1	270	0.00	29.924 
05:40	68.3	68.3	68.3	97	67.4	0	1	270	0.01	29.924 
05:45	68.3	68.3	68.3	97	67.4	0	0	---	0.00	29.932 
05:50	68.3	68.3	68.3	97	67.4	0	1	270	0.00	29.932 
05:55	68.3	68.3	68.3	97	67.4	0	1	270	0.00	29.932 
06:00	68.3	68.3	68.3	97	67.4	0	2	270	0.00	29.937 
06:05	68.3	68.3	68.3	97	67.4	0	1	270	0.00	29.937 
06:10	68.4	68.4	68.4	97	67.5	0	1	270	0.00	29.937 
06:15	68.4	68.4	68.4	97	67.5	0	1	270	0.00	29.937 
06:20	68.4	68.4	68.4	97	67.5	0	1	270	0.00	29.937 
06:25	68.4	68.4	68.4	97	67.5	0	1	270	0.00	29.937 
06:30	68.4	68.4	68.4	97	67.5	0	1	270	0.00	29.938 
06:35	68.4	68.4	68.4	97	67.5	0	1	270	0.00	29.938 
06:40	68.4	68.4	68.4	97	67.5	0	1	270	0.00	29.938 
06:45	68.4	68.4	68.4	97	67.5	0	1	270	0.00	29.948 
06:50	68.6	68.6	68.6	97	67.7	0	1	270	0.00	29.948 
06:55	68.6	68.6	68.6	97	67.7	0	1	270	0.00	29.948 
07:00	68.6	68.6	68.6	97	67.7	0	1	270	0.00	29.955 
07:05	68.6	68.6	68.6	97	67.7	0	1	270	0.00	29.955 
07:10	68.8	68.8	68.8	97	67.9	0	1	270	0.00	29.955 
07:15	68.8	68.8	68.8	97	67.9	0	1	270	0.00	29.958 
07:20	68.8	68.8	68.8	97	67.9	0	2	270	0.00	29.958 
07:25	68.8	68.8	68.8	97	67.9	0	2	270	0.00	29.958 
07:30	68.8	68.8	68.8	97	67.9	0	1	270	0.00	29.968 
07:35	68.9	68.9	68.9	97	68.0	0	1	315	0.00	29.968 
07:40	68.9	68.9	68.9	97	68.0	0	1	158	0.00	29.968 
07:45	68.9	68.9	68.9	97	68.0	0	1	112	0.00	29.971 
07:50	68.9	68.9	68.9	97	68.0	0	1	112	0.00	29.971 
07:55	69.1	69.1	69.1	97	68.2	0	1	112	0.00	29.971 
08:00	69.3	69.3	69.3	97	68.4	0	1	112	0.00	29.978 
08:05	69.3	69.3	69.3	97	68.4	0	2	112	0.00	29.978 
08:10	69.4	69.4	69.4	97	68.5	1	2	112	0.00	29.978 
08:15	69.4	69.4	69.4	97	68.5	0	3	112	0.00	29.984 
08:20	69.6	69.6	69.6	97	68.7	1	3	112	0.00	29.984 
08:25	69.6	69.6	69.6	97	68.7	0	3	112	0.00	29.984 
08:30	69.8	69.8	69.8	97	68.9	0	1	112	0.00	29.987 
08:35	69.8	69.8	69.8	97	68.9	0	3	112	0.00	29.987 
08:40	69.8	69.8	69.8	97	68.9	1	2	112	0.00	29.987 
08:45	69.8	69.8	69.8	97	68.9	0	2	112	0.00	29.993 
08:50	69.9	69.9	69.9	97	69.0	0	2	112	0.00	29.993 
08:55	70.1	70.1	70.1	97	69.2	0	2	112	0.00	29.993 
09:00	70.1	70.1	70.1	97	69.2	1	2	112	0.00	29.998 
09:05	69.9	69.9	69.9	97	69.0	1	3	112	0.00	29.998 
09:10	69.8	69.8	69.8	97	68.9	0	2	112	0.00	29.998 
09:15	70.1	70.1	70.1	97	69.2	0	2	112	0.00	29.999 
09:20	70.3	70.3	70.3	97	69.4	0	2	112	0.00	29.999 
09:25	70.4	70.4	70.4	96	69.2	1	3	112	0.00	29.999 
09:30	70.8	70.8	70.8	96	69.6	1	3	90	0.00	30.003 
09:35	70.9	70.9	70.9	96	69.7	1	3	90	0.00	30.003 
09:40	71.3	71.3	71.3	96	70.1	1	2	90	0.00	30.003 
09:45	71.8	71.8	71.8	96	70.6	0	2	90	0.00	30.006 
09:50	72.0	72.0	72.0	96	70.8	0	3	68	0.00	30.006 
09:55	71.8	71.8	71.8	95	70.3	1	4	0	0.00	30.006 
10:00	72.0	72.0	72.0	94	70.2	1	4	315	0.00	30.012 
10:05	72.5	72.5	72.5	90	69.4	1	4	90	0.00	30.012 
10:10	73.5	73.5	73.5	85	68.7	0	2	90	0.00	30.012 
10:15	73.9	73.9	73.9	83	68.4	0	2	90	0.00	30.012 
10:20	74.2	74.2	74.2	80	67.6	0	3	90	0.00	30.012 
10:25	74.4	74.4	74.4	76	66.3	1	4	90	0.00	30.012 
10:30	74.4	74.4	74.4	75	65.9	1	4	90	0.00	30.015 
10:35	74.6	74.6	74.6	75	66.1	1	6	90	0.00	30.015 
10:40	75.1	75.1	76.5	73	65.8	1	4	112	0.00	30.015 
10:45	75.8	75.8	77.3	73	66.5	1	4	112	0.00	30.022 
10:50	76.0	76.0	77.7	70	65.5	1	6	0	0.00	30.022 
10:55	75.8	75.8	77.3	73	66.5	0	3	0	0.00	30.022 
11:00	76.1	76.1	77.6	73	66.8	1	4	0	0.00	30.025 
11:05	76.3	76.3	77.8	73	67.0	1	5	112	0.00	30.025 
11:10	76.0	76.0	77.5	73	66.7	0	3	315	0.00	30.025 
11:15	76.1	76.1	77.5	74	67.2	0	3	315	0.00	30.027 
11:20	76.3	76.3	77.8	74	67.4	1	3	315	0.00	30.027 
11:25	76.5	76.5	78.1	72	66.8	1	4	315	0.00	30.027 
11:30	76.3	76.3	77.8	73	67.0	0	3	315	0.00	30.028 
11:35	76.0	76.0	77.5	73	66.7	0	2	315	0.00	30.028 
11:40	75.8	75.8	77.2	74	66.9	0	3	315	0.00	30.028 
11:45	76.5	76.5	78.1	72	66.8	0	2	45	0.00	30.030 
11:50	77.0	77.0	78.7	73	67.7	0	2	45	0.00	30.030 
11:55	77.7	77.7	79.6	70	67.1	1	4	68	0.00	30.030 
12:00	78.1	78.1	80.1	68	66.7	0	1	68	0.00	30.030 
12:05	78.3	78.3	80.4	69	67.3	1	3	68	0.00	30.030 
12:10	78.8	78.8	81.1	69	67.7	1	5	90	0.00	30.030 
12:15	78.6	78.6	80.8	69	67.6	1	4	90	0.00	30.027 
12:20	78.3	78.3	80.4	70	67.7	2	6	90	0.00	30.027 
12:25	77.7	77.7	79.6	69	66.7	1	4	292	0.00	30.027 
12:30	77.2	77.2	79.0	71	67.0	0	2	292	0.00	30.038 
12:35	77.6	77.6	79.5	72	67.8	1	3	292	0.00	30.038 
12:40	77.9	77.9	79.9	69	66.9	1	4	45	0.00	30.038 
12:45	78.6	78.6	80.7	68	67.1	1	4	112	0.00	30.039 
12:50	79.0	79.0	81.1	66	66.6	0	2	112	0.00	30.039 
12:55	78.5	78.5	80.5	66	66.2	1	4	112	0.00	30.039 
13:00	78.6	78.6	80.7	67	66.7	1	2	112	0.00	30.034 
13:05	78.8	78.8	80.9	66	66.5	1	5	338	0.00	30.034 
13:10	79.0	79.0	81.0	64	65.8	0	3	338	0.00	30.034 
13:15	79.6	79.6	81.9	66	67.2	1	3	338	0.00	30.033 
13:20	79.6	79.6	81.5	62	65.4	2	6	0	0.00	30.033 
13:25	79.4	79.4	81.5	64	66.1	1	4	315	0.00	30.033 
13:30	79.2	79.2	81.2	64	65.9	2	3	315	0.00	30.038 
13:35	79.4	79.4	81.4	63	65.7	1	6	315	0.00	30.038 
13:40	79.4	79.4	81.4	63	65.7	1	3	292	0.00	30.038 
13:45	79.6	79.6	81.6	63	65.9	1	3	292	0.00	30.041 
13:50	79.8	79.8	82.0	64	66.5	1	4	292	0.00	30.041 
13:55	79.4	79.4	81.3	62	65.2	1	3	292	0.00	30.041 
14:00	79.6	79.6	81.6	63	65.9	1	5	292	0.00	30.042 
14:05	79.9	79.9	82.1	64	66.6	0	3	135	0.00	30.042 
14:10	80.3	80.3	82.8	65	67.4	0	3	135	0.00	30.042 
14:15	79.9	79.9	81.9	62	65.7	0	2	135	0.00	30.040 
14:20	79.8	79.8	82.1	65	67.0	1	4	292	0.00	30.040 
14:25	79.9	79.9	81.9	62	65.7	1	2	292	0.00	30.040 
14:30	80.1	80.1	81.9	60	64.9	2	6	292	0.00	30.036 
14:35	80.5	80.5	82.2	58	64.3	1	3	292	0.00	30.036 
14:40	80.7	80.7	82.8	61	66.0	1	3	292	0.00	30.036 
14:45	80.9	80.9	83.1	61	66.2	1	3	292	0.00	30.035 
14:50	80.7	80.7	83.4	65	67.8	0	2	270	0.00	30.035 
14:55	80.7	80.7	82.7	60	65.5	1	2	270	0.00	30.035 
15:00	80.9	80.9	83.4	63	67.1	0	3	270	0.00	30.027 
15:05	81.1	81.1	83.0	59	65.4	0	2	270	0.00	30.027 
15:10	81.4	81.4	83.6	60	66.2	1	3	270	0.00	30.027 
15:15	81.4	81.4	83.3	58	65.2	1	3	270	0.00	30.026 
15:20	81.2	81.2	83.3	60	66.0	1	5	338	0.00	30.026 
15:25	81.2	81.2	83.0	58	65.0	1	4	338	0.00	30.026 
15:30	81.4	81.4	83.4	59	65.7	1	3	338	0.00	30.026 
15:35	81.6	81.6	83.7	59	65.9	1	5	22	0.00	30.026 
15:40	81.1	81.1	82.9	58	64.9	1	4	292	0.00	30.026 
15:45	80.7	80.7	82.9	62	66.4	0	3	338	0.00	30.026 
15:50	80.9	80.9	83.4	63	67.1	0	1	338	0.00	30.026 
15:55	80.3	80.3	81.9	58	64.2	2	4	338	0.00	30.026 
16:00	79.8	79.8	81.5	59	64.2	0	2	338	0.00	30.026 
16:05	79.8	79.8	81.7	61	65.1	0	3	45	0.00	30.026 
16:10	80.3	80.3	82.2	60	65.1	0	3	45	0.00	30.026 
16:15	80.3	80.3	81.8	57	63.7	0	2	22	0.00	30.022 
16:20	80.1	80.1	81.6	57	63.5	1	4	292	0.00	30.022 
16:25	80.3	80.3	81.8	57	63.7	0	3	292	0.00	30.022 
16:30	80.5	80.5	82.2	58	64.3	0	2	270	0.00	30.020 
16:35	80.5	80.5	82.3	59	64.8	1	4	270	0.00	30.020 
16:40	80.3	80.3	81.8	57	63.7	1	3	270	0.00	30.020 
16:45	80.5	80.5	82.2	58	64.3	0	4	292	0.00	30.022 
16:50	80.5	80.5	82.2	58	64.3	1	3	292	0.00	30.022 
16:55	80.5	80.5	81.8	55	62.8	1	4	292	0.00	30.022 
17:00	80.5	80.5	81.7	54	62.3	1	3	292	0.00	30.019 
17:05	80.3	80.3	81.7	56	63.1	0	2	248	0.00	30.019 
17:10	80.1	80.1	81.7	58	64.0	1	3	248	0.00	30.019 
17:15	80.1	80.1	81.9	60	64.9	0	3	248	0.00	30.019 
17:20	80.7	80.7	82.4	58	64.5	1	3	248	0.00	30.019 
17:25	80.9	80.9	82.7	58	64.7	0	2	248	0.00	30.019 
17:30	81.1	81.1	82.9	58	64.9	1	5	22	0.00	30.017 
17:35	81.1	81.1	82.5	55	63.4	1	3	90	0.00	30.017 
17:40	81.1	81.1	82.3	54	62.9	0	2	90	0.00	30.017 
17:45	81.1	81.1	82.3	54	62.9	1	3	90	0.00	30.014 
17:50	80.9	80.9	82.1	54	62.7	1	3	90	0.00	30.014 
17:55	80.9	80.9	82.5	57	64.2	0	2	90	0.00	30.014 
18:00	80.5	80.5	81.8	55	62.8	1	2	90	0.00	30.015 
18:05	80.3	80.3	81.8	57	63.7	0	3	90	0.00	30.015 
18:10	79.8	79.8	81.1	55	62.2	1	4	90	0.00	30.015 
18:15	79.4	79.4	80.8	56	62.3	1	3	90	0.00	30.019 
18:20	79.0	79.0	80.5	57	62.4	0	3	90	0.00	30.019 
18:25	78.6	78.6	80.1	57	62.1	0	2	90	0.00	30.019 
18:30	78.8	78.8	80.2	56	61.8	1	2	90	0.00	30.022 
18:35	79.2	79.2	80.5	55	61.6	1	2	90	0.00	30.022 
18:40	79.2	79.2	80.6	56	62.1	0	2	90	0.00	30.022 
18:45	79.2	79.2	80.7	57	62.6	0	2	90	0.00	30.015 
18:50	79.4	79.4	80.7	55	61.8	0	3	90	0.00	30.015 
18:55	79.6	79.6	81.1	57	63.0	0	3	90	0.00	30.015 
19:00	79.6	79.6	81.0	56	62.5	0	2	90	0.00	30.017 
19:05	79.6	79.6	81.0	56	62.5	0	2	90	0.00	30.017 
19:10	79.4	79.4	80.8	56	62.3	0	3	90	0.00	30.017 
19:15	79.2	79.2	80.6	56	62.1	0	1	90	0.00	30.020 
19:20	79.2	79.2	80.7	57	62.6	0	3	90	0.00	30.020 
19:25	79.0	79.0	80.5	57	62.4	0	2	90	0.00	30.020 
19:30	79.0	79.0	80.5	57	62.4	0	2	90	0.00	30.019 
19:35	79.0	79.0	80.4	56	61.9	0	2	338	0.00	30.019 
19:40	79.2	79.2	80.7	58	63.1	0	0	---	0.00	30.019 
19:45	78.8	78.8	80.2	56	61.8	1	4	135	0.00	30.023 
19:50	78.6	78.6	80.0	56	61.6	0	2	135	0.00	30.023 
19:55	78.6	78.6	80.1	58	62.6	0	1	135	0.00	30.023 
20:00	78.5	78.5	80.0	58	62.5	0	1	135	0.00	30.025 
20:05	78.3	78.3	79.9	58	62.3	0	1	135	0.00	30.025 
20:10	78.1	78.1	79.7	58	62.1	0	1	135	0.00	30.025 
20:15	77.9	77.9	79.4	56	60.9	0	2	135	0.00	30.026 
20:20	77.9	77.9	79.4	56	60.9	0	1	135	0.00	30.026 
20:25	77.7	77.7	79.3	57	61.2	0	1	112	0.00	30.026 
20:30	77.4	77.4	79.0	56	60.5	0	2	112	0.00	30.027 
20:35	77.2	77.2	78.9	58	61.3	0	1	90	0.00	30.027 
20:40	76.8	76.8	78.6	58	60.9	0	1	90	0.00	30.027 
20:45	76.5	76.5	78.4	58	60.6	0	2	90	0.00	30.031 
20:50	76.1	76.1	78.1	58	60.2	0	1	90	0.00	30.031 
20:55	75.8	75.8	77.9	59	60.4	0	1	90	0.00	30.031 
21:00	75.6	75.6	77.7	60	60.7	0	0	---	0.00	30.038 
21:05	75.3	75.3	77.5	61	60.9	0	0	---	0.00	30.038 
21:10	74.9	74.9	74.9	61	60.5	0	0	---	0.00	30.038 
21:15	74.7	74.7	74.7	62	60.8	0	0	---	0.00	30.036 
21:20	74.4	74.4	74.4	62	60.5	0	0	---	0.00	30.036 
21:25	74.0	74.0	74.0	64	61.0	0	0	---	0.00	30.036 
21:30	73.7	73.7	73.7	65	61.2	0	0	---	0.00	30.041 
21:35	73.3	73.3	73.3	66	61.2	0	0	---	0.00	30.041 
21:40	73.0	73.0	73.0	66	61.0	0	0	---	0.00	30.041 
21:45	72.7	72.7	72.7	67	61.1	0	0	---	0.00	30.046 
21:50	72.5	72.5	72.5	68	61.3	0	0	---	0.00	30.046 
21:55	72.3	72.3	72.3	69	61.5	0	0	---	0.00	30.046 
22:00	72.0	72.0	72.0	69	61.3	0	0	---	0.00	30.047 
22:05	71.8	71.8	71.8	68	60.7	0	0	---	0.00	30.047 
22:10	71.5	71.5	71.5	69	60.8	0	0	---	0.00	30.047 
22:15	71.3	71.3	71.3	69	60.6	0	0	---	0.00	30.048 
22:20	71.1	71.1	71.1	69	60.4	0	0	---	0.00	30.048 
22:25	70.9	70.9	70.9	69	60.2	0	0	---	0.00	30.048 
22:30	70.8	70.8	70.8	70	60.5	0	0	---	0.00	30.059 
22:35	70.6	70.6	70.6	71	60.7	0	0	---	0.00	30.059 
22:40	70.4	70.4	70.4	71	60.5	0	1	90	0.00	30.059 
22:45	70.6	70.6	70.6	69	59.9	0	2	90	0.00	30.063 
22:50	70.6	70.6	70.6	69	59.9	0	2	90	0.00	30.063 
22:55	70.4	70.4	70.4	69	59.7	0	1	90	0.00	30.063 
23:00	70.3	70.3	70.3	69	59.6	0	1	90	0.00	30.072 
23:05	70.1	70.1	70.1	69	59.4	0	1	90	0.00	30.072 
23:10	69.9	69.9	69.9	69	59.3	0	0	---	0.00	30.072 
23:15	69.8	69.8	69.8	69	59.2	0	0	---	0.00	30.070 
23:20	69.6	69.6	69.6	70	59.4	0	0	---	0.00	30.070 
23:25	69.4	69.4	69.4	70	59.2	0	0	---	0.00	30.070 
23:30	69.1	69.1	69.1	70	58.9	0	0	---	0.00	30.065 
23:35	68.9	68.9	68.9	71	59.1	0	0	---	0.00	30.065 
23:40	68.8	68.8	68.8	71	59.0	0	0	---	0.00	30.065 
23:45	68.6	68.6	68.6	71	58.8	0	0	---	0.00	30.064 
23:50	68.4	68.4	68.4	71	58.6	0	0	---	0.00	30.064 
23:55	68.4	68.4	68.4	72	59.0	0	0	---	0.00	30.064 

CoCoRaHS
IN-AL-39
A2 Web Hosting
Creative Commons License
GoDaddy
search engine by freefind advanced

loaded 2018-11-17 14:44:56 • last modified 2010-11-18 10:43:29
Privacy PolicyDisclaimer
• wx.awcolley.com is powered by PmWiki v.2002016 •
• all content (unless otherwise noted) © 2018 A W Colley